Pacific Titan — WCZ6844 — position and weather

sailwx.info

Track history (hours):
 
Tides and Currents Weather Stations Pressure Air Temp Water Temp Dewpoint Dewpoint Depression Visibility Wind Speed Wind Dir Waves Ship Positions

Pacific Titan

Owner: WESTERN TOWBOAT CO, SEATTLE, WA. More information available from US FCC via Universal Licensing System and Coast Guard Vessel Documentation Center.

Last reported at 2016-Feb-07 18:23 UTC. Time now 2016-Feb-12 12:05 UTC.
Position N 52°19' W 128°30'.

Type: Tow > 200 m length. MMSI: 338855000.

Date/timePositionNaut miles runAvg speedWind from/ knotsBaromVisibWave heightAir tempDewpointWater temp
2016-Feb-07 18:23N 52°19' W 128°30'8 9.4
2016-Feb-07 17:33N 52°15' W 128°20'9 9.0
2016-Feb-07 16:33N 52°11' W 128°07'8 7.7
2016-Feb-07 15:31N 52°05' W 127°59'49 9.9
2016-Feb-07 10:33N 51°16' W 127°53'1010.3
2016-Feb-07 09:33N 51°06' W 127°46'1010.4
2016-Feb-07 08:33N 50°59' W 127°34'9 9.4
2016-Feb-07 07:33N 50°54' W 127°22'10 9.6
2016-Feb-07 06:31N 50°47' W 127°10'5810.6
2016-Feb-07 01:05N 50°23' W 125°48'1011.9
2016-Feb-07 00:13N 50°21' W 125°32'6 9.4
2016-Feb-06 23:33N 50°17' W 125°24'9 8.7
2016-Feb-06 22:34N 50°09' W 125°21'7 6.9
2016-Feb-06 21:34N 50°03' W 125°15'6 5.5
2016-Feb-06 20:34N 49°59' W 125°10'8 7.7
2016-Feb-06 19:34N 49°54' W 125°01'8 8.2
2016-Feb-06 18:33N 49°48' W 124°51'9 9.4
2016-Feb-06 17:33N 49°42' W 124°40'1110.8
2016-Feb-06 16:34N 49°36' W 124°27'1010.2
2016-Feb-06 15:34N 49°31' W 124°13'9 9.4
2016-Feb-06 14:34N 49°25' W 124°02'1110.6
2016-Feb-06 13:34N 49°19' W 123°48'1110.8
2016-Feb-06 12:33N 49°12' W 123°35'1110.7
2016-Feb-06 11:34N 49°05' W 123°23'1110.8
2016-Feb-06 10:33N 48°58' W 123°10'1110.6
2016-Feb-06 09:34N 48°51' W 122°59'1010.3
2016-Feb-06 08:33N 48°45' W 122°46'1110.7
2016-Feb-06 07:33N 48°35' W 122°45'1111.0
2016-Feb-06 06:33N 48°23' W 122°44'10 9.5
2016-Feb-06 05:29N 48°14' W 122°48'1010.2
2016-Feb-06 04:33N 48°06' W 122°39'1211.8
2016-Feb-06 03:34N 47°56' W 122°30'1111.2
2016-Feb-06 02:34N 47°45' W 122°26'10 9.6
2016-Feb-06 01:34N 47°36' W 122°22'3 3.1
2016-Feb-06 00:34N 47°33' W 122°21'0 0.0
2016-Feb-05 23:33N 47°33' W 122°21'5 5.3
2016-Feb-05 22:33N 47°37' W 122°25'3 2.7
2016-Feb-05 21:33N 47°40' W 122°23'1 1.1
2016-Feb-05 20:33N 47°39' W 122°22'0 0.0
2016-Feb-05 19:33N 47°39' W 122°22'0 0.0
2016-Feb-05 18:34N 47°39' W 122°22'0 0.0
2016-Feb-05 17:34N 47°39' W 122°22'0 0.0
2016-Feb-05 16:34N 47°39' W 122°22'0 0.0
2016-Feb-05 15:34N 47°39' W 122°22'0 0.0
2016-Feb-05 14:33N 47°39' W 122°22'0 0.0
2016-Feb-05 13:33N 47°39' W 122°22'0 0.0
2016-Feb-05 12:34N 47°39' W 122°22'0 0.0
2016-Feb-05 11:34N 47°39' W 122°22'0 0.0
2016-Feb-05 10:34N 47°39' W 122°22'0 0.0
2016-Feb-05 09:34N 47°39' W 122°22'0 0.0
2016-Feb-05 08:34N 47°39' W 122°22'0 0.0
2016-Feb-05 07:34N 47°39' W 122°22'0 0.0
2016-Feb-05 06:34N 47°39' W 122°22'0 0.0
2016-Feb-05 05:34N 47°39' W 122°22'0 0.0
2016-Feb-05 04:34N 47°39' W 122°22'0 0.0
2016-Feb-05 03:34N 47°39' W 122°22'0 0.0
2016-Feb-05 02:34N 47°39' W 122°22'0 0.0
2016-Feb-05 01:34N 47°39' W 122°22'0 0.0
2016-Feb-05 00:34N 47°39' W 122°22'0 0.0
2016-Feb-04 23:33N 47°39' W 122°22'0 0.0
2016-Feb-04 22:33N 47°39' W 122°22'0 0.0
2016-Feb-04 21:33N 47°39' W 122°22'0 0.0
2016-Feb-04 20:33N 47°39' W 122°22'0 0.0
2016-Feb-04 19:34N 47°39' W 122°22'0 0.0
2016-Feb-04 18:33N 47°39' W 122°22'0 0.0
2016-Feb-04 17:34N 47°39' W 122°22'0 0.0
2016-Feb-04 16:34N 47°39' W 122°22'0 0.0
2016-Feb-04 15:33N 47°39' W 122°22'0 0.0
2016-Feb-04 14:33N 47°39' W 122°22'0 0.0
2016-Feb-04 13:33N 47°39' W 122°22'0 0.0
2016-Feb-04 12:33N 47°39' W 122°22'0 0.0
2016-Feb-04 11:33N 47°39' W 122°22'0 0.0
2016-Feb-04 10:33N 47°39' W 122°22'0 0.0
2016-Feb-04 09:33N 47°39' W 122°22'0 0.0
2016-Feb-04 08:33N 47°39' W 122°22'0 0.0
2016-Feb-04 07:33N 47°39' W 122°22'0 0.0
2016-Feb-04 06:33N 47°39' W 122°22'0 0.0
2016-Feb-04 05:33N 47°39' W 122°22'0 0.0
2016-Feb-04 04:33N 47°39' W 122°22'0 0.0
2016-Feb-04 03:33N 47°39' W 122°22'4 3.5
2016-Feb-04 02:33N 47°42' W 122°25'1 0.7
2016-Feb-04 01:33N 47°43' W 122°25'  
Track history (hours):
 
Tides and Currents Weather Stations Pressure Air Temp Water Temp Dewpoint Dewpoint Depression Visibility Wind Speed Wind Dir Waves Ship Positions

Pacific Titan

Owner: WESTERN TOWBOAT CO, SEATTLE, WA. More information available from US FCC via Universal Licensing System and Coast Guard Vessel Documentation Center.

Last reported at 2016-Feb-07 18:23 UTC. Time now 2016-Feb-12 12:05 UTC.
Position N 52°19' W 128°30'.

Type: Tow > 200 m length. MMSI: 338855000.

Date/timePositionNaut miles runAvg speedWind from/ knotsBaromVisibWave heightAir tempDewpointWater temp
2016-Feb-07 18:23N 52°19' W 128°30'8 9.4
2016-Feb-07 17:33N 52°15' W 128°20'9 9.0
2016-Feb-07 16:33N 52°11' W 128°07'8 7.7
2016-Feb-07 15:31N 52°05' W 127°59'49 9.9
2016-Feb-07 10:33N 51°16' W 127°53'1010.3
2016-Feb-07 09:33N 51°06' W 127°46'1010.4
2016-Feb-07 08:33N 50°59' W 127°34'9 9.4
2016-Feb-07 07:33N 50°54' W 127°22'10 9.6
2016-Feb-07 06:31N 50°47' W 127°10'5810.6
2016-Feb-07 01:05N 50°23' W 125°48'1011.9
2016-Feb-07 00:13N 50°21' W 125°32'6 9.4
2016-Feb-06 23:33N 50°17' W 125°24'9 8.7
2016-Feb-06 22:34N 50°09' W 125°21'7 6.9
2016-Feb-06 21:34N 50°03' W 125°15'6 5.5
2016-Feb-06 20:34N 49°59' W 125°10'8 7.7
2016-Feb-06 19:34N 49°54' W 125°01'8 8.2
2016-Feb-06 18:33N 49°48' W 124°51'9 9.4
2016-Feb-06 17:33N 49°42' W 124°40'1110.8
2016-Feb-06 16:34N 49°36' W 124°27'1010.2
2016-Feb-06 15:34N 49°31' W 124°13'9 9.4
2016-Feb-06 14:34N 49°25' W 124°02'1110.6
2016-Feb-06 13:34N 49°19' W 123°48'1110.8
2016-Feb-06 12:33N 49°12' W 123°35'1110.7
2016-Feb-06 11:34N 49°05' W 123°23'1110.8
2016-Feb-06 10:33N 48°58' W 123°10'1110.6
2016-Feb-06 09:34N 48°51' W 122°59'1010.3
2016-Feb-06 08:33N 48°45' W 122°46'1110.7
2016-Feb-06 07:33N 48°35' W 122°45'1111.0
2016-Feb-06 06:33N 48°23' W 122°44'10 9.5
2016-Feb-06 05:29N 48°14' W 122°48'1010.2
2016-Feb-06 04:33N 48°06' W 122°39'1211.8
2016-Feb-06 03:34N 47°56' W 122°30'1111.2
2016-Feb-06 02:34N 47°45' W 122°26'10 9.6
2016-Feb-06 01:34N 47°36' W 122°22'3 3.1
2016-Feb-06 00:34N 47°33' W 122°21'0 0.0
2016-Feb-05 23:33N 47°33' W 122°21'5 5.3
2016-Feb-05 22:33N 47°37' W 122°25'3 2.7
2016-Feb-05 21:33N 47°40' W 122°23'1 1.1
2016-Feb-05 20:33N 47°39' W 122°22'0 0.0
2016-Feb-05 19:33N 47°39' W 122°22'0 0.0
2016-Feb-05 18:34N 47°39' W 122°22'0 0.0
2016-Feb-05 17:34N 47°39' W 122°22'0 0.0
2016-Feb-05 16:34N 47°39' W 122°22'0 0.0
2016-Feb-05 15:34N 47°39' W 122°22'0 0.0
2016-Feb-05 14:33N 47°39' W 122°22'0 0.0
2016-Feb-05 13:33N 47°39' W 122°22'0 0.0
2016-Feb-05 12:34N 47°39' W 122°22'0 0.0
2016-Feb-05 11:34N 47°39' W 122°22'0 0.0
2016-Feb-05 10:34N 47°39' W 122°22'0 0.0
2016-Feb-05 09:34N 47°39' W 122°22'0 0.0
2016-Feb-05 08:34N 47°39' W 122°22'0 0.0
2016-Feb-05 07:34N 47°39' W 122°22'0 0.0
2016-Feb-05 06:34N 47°39' W 122°22'0 0.0
2016-Feb-05 05:34N 47°39' W 122°22'0 0.0
2016-Feb-05 04:34N 47°39' W 122°22'0 0.0
2016-Feb-05 03:34N 47°39' W 122°22'0 0.0
2016-Feb-05 02:34N 47°39' W 122°22'0 0.0
2016-Feb-05 01:34N 47°39' W 122°22'0 0.0
2016-Feb-05 00:34N 47°39' W 122°22'0 0.0
2016-Feb-04 23:33N 47°39' W 122°22'0 0.0
2016-Feb-04 22:33N 47°39' W 122°22'0 0.0
2016-Feb-04 21:33N 47°39' W 122°22'0 0.0
2016-Feb-04 20:33N 47°39' W 122°22'0 0.0
2016-Feb-04 19:34N 47°39' W 122°22'0 0.0
2016-Feb-04 18:33N 47°39' W 122°22'0 0.0
2016-Feb-04 17:34N 47°39' W 122°22'0 0.0
2016-Feb-04 16:34N 47°39' W 122°22'0 0.0
2016-Feb-04 15:33N 47°39' W 122°22'0 0.0
2016-Feb-04 14:33N 47°39' W 122°22'0 0.0
2016-Feb-04 13:33N 47°39' W 122°22'0 0.0
2016-Feb-04 12:33N 47°39' W 122°22'0 0.0
2016-Feb-04 11:33N 47°39' W 122°22'0 0.0
2016-Feb-04 10:33N 47°39' W 122°22'0 0.0
2016-Feb-04 09:33N 47°39' W 122°22'0 0.0
2016-Feb-04 08:33N 47°39' W 122°22'0 0.0
2016-Feb-04 07:33N 47°39' W 122°22'0 0.0
2016-Feb-04 06:33N 47°39' W 122°22'0 0.0
2016-Feb-04 05:33N 47°39' W 122°22'0 0.0
2016-Feb-04 04:33N 47°39' W 122°22'0 0.0
2016-Feb-04 03:33N 47°39' W 122°22'4 3.5
2016-Feb-04 02:33N 47°42' W 122°25'1 0.7
2016-Feb-04 01:33N 47°43' W 122°25'  

Dump ship's entire track history